Time;durP1;ratioP1;P1;durP2;ratioP2;P2;SDS_P1;SDS_P2;PMS_P1;PMS_P2;Temp;Humidity;BMP_temperature;BMP_pressure;BME280_temperature;BME280_humidity;BME280_pressure;Samples;Min_cycle;Max_cycle;Signal;HPM_P1;HPM_P2
2023/09/10 00:00:00;;;;;;;10.7;9.5;;;;;;;;;;;;;
2023/09/10 00:02:29;;;;;;;10.8;9.4;;;;;;;;;;;;;
2023/09/10 00:04:54;;;;;;;10.5;9.2;;;;;;;;;;;;;
2023/09/10 00:07:19;;;;;;;10.1;9;;;;;;;;;;;;;
2023/09/10 00:09:45;;;;;;;10.4;9.3;;;;;;;;;;;;;
2023/09/10 00:12:11;;;;;;;10.6;9.4;;;;;;;;;;;;;
2023/09/10 00:14:36;;;;;;;10.5;9.5;;;;;;;;;;;;;
2023/09/10 00:17:03;;;;;;;10.6;9.5;;;;;;;;;;;;;
2023/09/10 00:19:28;;;;;;;10.8;9.7;;;;;;;;;;;;;
2023/09/10 00:21:54;;;;;;;10.9;9.7;;;;;;;;;;;;;
2023/09/10 00:24:19;;;;;;;11.2;9.5;;;;;;;;;;;;;
2023/09/10 00:26:44;;;;;;;11.4;10.2;;;;;;;;;;;;;
2023/09/10 00:29:09;;;;;;;11.2;10;;;;;;;;;;;;;
2023/09/10 00:31:35;;;;;;;10.4;9.4;;;;;;;;;;;;;
2023/09/10 00:34:01;;;;;;;12.3;9.8;;;;;;;;;;;;;
2023/09/10 00:36:27;;;;;;;10.9;9.8;;;;;;;;;;;;;
2023/09/10 00:38:52;;;;;;;13;9.3;;;;;;;;;;;;;
2023/09/10 00:41:17;;;;;;;11.5;10;;;;;;;;;;;;;
2023/09/10 00:43:42;;;;;;;11;9.7;;;;;;;;;;;;;
2023/09/10 00:46:09;;;;;;;12;10;;;;;;;;;;;;;
2023/09/10 00:48:34;;;;;;;10.4;9.3;;;;;;;;;;;;;
2023/09/10 00:51:00;;;;;;;10.8;9.7;;;;;;;;;;;;;
2023/09/10 00:53:25;;;;;;;12.2;9.9;;;;;;;;;;;;;
2023/09/10 00:55:50;;;;;;;12;10.3;;;;;;;;;;;;;
2023/09/10 00:58:15;;;;;;;12.6;9.9;;;;;;;;;;;;;
2023/09/10 01:00:40;;;;;;;10.3;9.2;;;;;;;;;;;;;
2023/09/10 01:03:05;;;;;;;11.4;10.2;;;;;;;;;;;;;
2023/09/10 01:05:32;;;;;;;11.1;9.9;;;;;;;;;;;;;
2023/09/10 01:07:57;;;;;;;11;9.1;;;;;;;;;;;;;
2023/09/10 01:10:22;;;;;;;10.9;9.2;;;;;;;;;;;;;
2023/09/10 01:12:48;;;;;;;10.8;9.7;;;;;;;;;;;;;
2023/09/10 01:15:15;;;;;;;11.9;10.2;;;;;;;;;;;;;
2023/09/10 01:17:40;;;;;;;11;9.7;;;;;;;;;;;;;
2023/09/10 01:20:11;;;;;;;10.3;9.1;;;;;;;;;;;;;
2023/09/10 01:22:30;;;;;;;10.4;9.3;;;;;;;;;;;;;
2023/09/10 01:24:55;;;;;;;13.5;9.8;;;;;;;;;;;;;
2023/09/10 01:27:20;;;;;;;11.5;9.5;;;;;;;;;;;;;
2023/09/10 01:29:45;;;;;;;10.4;9.4;;;;;;;;;;;;;
2023/09/10 01:32:11;;;;;;;10.2;9.2;;;;;;;;;;;;;
2023/09/10 01:34:36;;;;;;;10.9;9.3;;;;;;;;;;;;;
2023/09/10 01:37:02;;;;;;;11;9.9;;;;;;;;;;;;;
2023/09/10 01:39:26;;;;;;;12.4;9.7;;;;;;;;;;;;;
2023/09/10 01:41:52;;;;;;;11.1;9.9;;;;;;;;;;;;;
2023/09/10 01:44:17;;;;;;;11.2;10.1;;;;;;;;;;;;;
2023/09/10 01:46:43;;;;;;;10.9;9.8;;;;;;;;;;;;;
2023/09/10 01:49:08;;;;;;;11.9;10.1;;;;;;;;;;;;;
2023/09/10 01:51:33;;;;;;;10.5;9.3;;;;;;;;;;;;;
2023/09/10 01:53:58;;;;;;;11;9.8;;;;;;;;;;;;;
2023/09/10 01:56:23;;;;;;;10.8;9.7;;;;;;;;;;;;;
2023/09/10 01:58:48;;;;;;;11.3;9.7;;;;;;;;;;;;;
2023/09/10 02:01:13;;;;;;;11;9.7;;;;;;;;;;;;;
2023/09/10 02:03:39;;;;;;;11.4;10.2;;;;;;;;;;;;;
2023/09/10 02:06:05;;;;;;;11.5;9.8;;;;;;;;;;;;;
2023/09/10 02:08:30;;;;;;;11.6;10.1;;;;;;;;;;;;;
2023/09/10 02:10:55;;;;;;;11.8;9.9;;;;;;;;;;;;;
2023/09/10 02:13:22;;;;;;;12.1;10.2;;;;;;;;;;;;;
2023/09/10 02:15:47;;;;;;;11.5;9.6;;;;;;;;;;;;;
2023/09/10 02:18:12;;;;;;;12.5;9.4;;;;;;;;;;;;;
2023/09/10 02:20:38;;;;;;;11.4;10;;;;;;;;;;;;;
2023/09/10 02:23:02;;;;;;;12;9.7;;;;;;;;;;;;;
2023/09/10 02:25:27;;;;;;;11;9.3;;;;;;;;;;;;;
2023/09/10 02:27:53;;;;;;;10.3;9.3;;;;;;;;;;;;;
2023/09/10 02:30:18;;;;;;;11.2;10;;;;;;;;;;;;;
2023/09/10 02:32:43;;;;;;;12;10.1;;;;;;;;;;;;;
2023/09/10 02:35:12;;;;;;;11.3;9.6;;;;;;;;;;;;;
2023/09/10 02:37:38;;;;;;;10.4;8.9;;;;;;;;;;;;;
2023/09/10 02:40:04;;;;;;;10.3;9.3;;;;;;;;;;;;;
2023/09/10 02:42:28;;;;;;;11.5;9.7;;;;;;;;;;;;;
2023/09/10 02:44:55;;;;;;;11.6;9.6;;;;;;;;;;;;;
2023/09/10 02:47:19;;;;;;;10.1;9.1;;;;;;;;;;;;;
2023/09/10 02:49:46;;;;;;;11.7;9.4;;;;;;;;;;;;;
2023/09/10 02:52:11;;;;;;;11.1;9.5;;;;;;;;;;;;;
2023/09/10 02:54:37;;;;;;;10.7;9.6;;;;;;;;;;;;;
2023/09/10 02:57:03;;;;;;;10.8;9.1;;;;;;;;;;;;;
2023/09/10 02:59:28;;;;;;;10.8;9.7;;;;;;;;;;;;;
2023/09/10 03:01:53;;;;;;;11.4;10.2;;;;;;;;;;;;;
2023/09/10 03:04:19;;;;;;;10.8;9.6;;;;;;;;;;;;;
2023/09/10 03:06:44;;;;;;;10.6;9.5;;;;;;;;;;;;;
2023/09/10 03:09:10;;;;;;;10.8;9.5;;;;;;;;;;;;;
2023/09/10 03:11:37;;;;;;;11.1;9.9;;;;;;;;;;;;;
2023/09/10 03:14:02;;;;;;;10.5;9.1;;;;;;;;;;;;;
2023/09/10 03:16:27;;;;;;;10.7;9.5;;;;;;;;;;;;;
2023/09/10 03:18:53;;;;;;;11;9.8;;;;;;;;;;;;;
2023/09/10 03:21:20;;;;;;;10.5;9.4;;;;;;;;;;;;;
2023/09/10 03:23:45;;;;;;;10.4;9.3;;;;;;;;;;;;;
2023/09/10 03:26:10;;;;;;;10.9;9.2;;;;;;;;;;;;;
2023/09/10 03:28:36;;;;;;;11;9.4;;;;;;;;;;;;;
2023/09/10 03:31:00;;;;;;;10.8;9.5;;;;;;;;;;;;;
2023/09/10 03:33:26;;;;;;;11.4;9.4;;;;;;;;;;;;;
2023/09/10 03:35:51;;;;;;;11.3;9.3;;;;;;;;;;;;;
2023/09/10 03:38:17;;;;;;;10.8;9.3;;;;;;;;;;;;;
2023/09/10 03:40:42;;;;;;;12;9.6;;;;;;;;;;;;;
2023/09/10 03:43:08;;;;;;;10.5;9.5;;;;;;;;;;;;;
2023/09/10 03:45:33;;;;;;;10.9;8.9;;;;;;;;;;;;;
2023/09/10 03:47:59;;;;;;;9.9;8.9;;;;;;;;;;;;;
2023/09/10 03:50:24;;;;;;;11.3;9.5;;;;;;;;;;;;;
2023/09/10 03:52:49;;;;;;;9.8;8.8;;;;;;;;;;;;;
2023/09/10 03:55:15;;;;;;;11.7;9;;;;;;;;;;;;;
2023/09/10 03:57:40;;;;;;;10.5;9.2;;;;;;;;;;;;;
2023/09/10 04:00:08;;;;;;;10.2;9.2;;;;;;;;;;;;;
2023/09/10 04:02:39;;;;;;;10.7;9.5;;;;;;;19.22;94.04883;940.4824;;;;
2023/09/10 04:05:05;;;;;;;10.1;9.1;;;;;;;19.23;94.14551;940.4797;;;;
2023/09/10 04:07:29;;;;;;;10.8;9.7;;;;;;;19.15;94.81543;940.4947;;;;
2023/09/10 04:09:59;;;;;;;10.8;9.2;;;;;;;19.13;94.42578;940.5137;;;;
2023/09/10 04:12:29;;;;;;;10.7;9.6;;;;;;;19.03;95.19629;940.5084;;;;
2023/09/10 04:14:54;;;;;;;10.5;9.4;;;;;;;18.89;96.2002;940.5577;;;;
2023/09/10 04:17:28;;;;;;;10.2;9.2;;;;;;;18.78;96.63086;940.5126;;;;
2023/09/10 04:19:52;;;;;;;11.5;9.5;;;;;;;18.8;96.82324;940.5711;;;;
2023/09/10 04:22:21;;;;;;;10;9;;;;;;;18.86;96.00879;940.5817;;;;
2023/09/10 04:24:45;;;;;;;12.8;10.2;;;;;;;18.8;97.32129;940.5317;;;;
2023/09/10 04:27:10;;;;;;;11.8;9.4;;;;;;;18.78;97.45703;940.603;;;;
2023/09/10 04:29:39;;;;;;;11.2;10;;;;;;;18.83;96.7959;940.57;;;;
2023/09/10 04:32:04;;;;;;;11.7;9.6;;;;;;;18.83;97.14453;940.5458;;;;
2023/09/10 04:34:30;;;;;;;11.6;9.9;;;;;;;18.75;97.95117;940.5745;;;;
2023/09/10 04:36:55;;;;;;;10.6;9.5;;;;;;;18.8;97.2627;940.6236;;;;
2023/09/10 04:39:22;;;;;;;11.8;9.9;;;;;;;18.78;97.20117;940.6588;;;;
2023/09/10 04:41:47;;;;;;;11.2;9.5;;;;;;;18.76;97.35938;940.6647;;;;
2023/09/10 04:44:18;;;;;;;12.2;10;;;;;;;18.83;96.45605;940.6872;;;;
2023/09/10 04:46:45;;;;;;;12.5;10;;;;;;;18.77;96.74512;940.6678;;;;
2023/09/10 04:49:11;;;;;;;10.6;9.5;;;;;;;18.76;97.17383;940.7059;;;;
2023/09/10 04:51:35;;;;;;;12.9;10.4;;;;;;;18.81;96.58008;940.7155;;;;
2023/09/10 04:54:01;;;;;;;11;9.3;;;;;;;18.84;95.67871;940.7305;;;;
2023/09/10 04:56:26;;;;;;;12.9;10.4;;;;;;;18.86;96.08984;940.7488;;;;
2023/09/10 04:58:53;;;;;;;11;9.5;;;;;;;18.75;96.75098;940.7126;;;;
2023/09/10 05:01:18;;;;;;;11.3;9.6;;;;;;;18.69;97.29688;940.7983;;;;
2023/09/10 05:03:44;;;;;;;11;9.8;;;;;;;18.7;97.3125;940.815;;;;
2023/09/10 05:06:09;;;;;;;11.2;9.8;;;;;;;18.75;96.81055;940.8158;;;;
2023/09/10 05:08:36;;;;;;;11.9;10.1;;;;;;;18.7;96.67285;940.865;;;;
2023/09/10 05:11:01;;;;;;;11.5;9.6;;;;;;;18.68;97.3418;940.8928;;;;
2023/09/10 05:13:27;;;;;;;12.2;9.4;;;;;;;18.62;97.21191;940.899;;;;
2023/09/10 05:15:54;;;;;;;11.3;9.7;;;;;;;18.61;97.4541;940.9514;;;;
2023/09/10 05:18:24;;;;;;;11.4;9.8;;;;;;;18.62;97.27148;940.9774;;;;
2023/09/10 05:20:55;;;;;;;10.8;9.7;;;;;;;18.45;98.60547;940.959;;;;
2023/09/10 05:23:26;;;;;;;11.6;9.9;;;;;;;18.5;98.94141;941.0454;;;;
2023/09/10 05:25:51;;;;;;;11.4;10;;;;;;;18.54;98.67285;941.0399;;;;
2023/09/10 05:28:19;;;;;;;12.7;9.7;;;;;;;18.62;98.375;941.0288;;;;
2023/09/10 05:30:44;;;;;;;10.7;9.2;;;;;;;18.76;97.88379;941.0035;;;;
2023/09/10 05:33:13;;;;;;;10.9;9.7;;;;;;;18.9;96.92578;941.0021;;;;
2023/09/10 05:35:43;;;;;;;10.6;9.5;;;;;;;18.96;96.24121;941.0058;;;;
2023/09/10 05:38:14;;;;;;;12.4;10;;;;;;;19.05;95.45605;941.0352;;;;
2023/09/10 05:40:42;;;;;;;10.6;9.5;;;;;;;19.12;95.78613;941.0145;;;;
2023/09/10 05:43:08;;;;;;;10.1;9.1;;;;;;;19.15;95.58398;941.0259;;;;
2023/09/10 05:45:33;;;;;;;11;8.9;;;;;;;19.19;95.4502;940.9963;;;;
2023/09/10 05:47:58;;;;;;;9.8;8.8;;;;;;;19.31;95.65234;940.9941;;;;
2023/09/10 05:50:23;;;;;;;10.9;9.6;;;;;;;19.48;94.89746;940.9788;;;;
2023/09/10 05:52:53;;;;;;;10.3;9.3;;;;;;;19.75;94.08105;940.9633;;;;
2023/09/10 05:55:16;;;;;;;12.7;8.9;;;;;;;20.14;92.47168;941.0069;;;;
2023/09/10 05:57:42;;;;;;;9.1;8.1;;;;;;;20.87;89.38574;941.0221;;;;
2023/09/10 06:00:08;;;;;;;8.9;8;;;;;;;21.42;85.22266;940.9774;;;;
2023/09/10 06:02:35;;;;;;;9.2;8.2;;;;;;;21.91;82.84473;940.9634;;;;
2023/09/10 06:05:00;;;;;;;8.6;7.7;;;;;;;22.07;81.61035;940.9606;;;;
2023/09/10 06:07:25;;;;;;;8.9;7.7;;;;;;;22.29;80.55957;941.0052;;;;
2023/09/10 06:09:51;;;;;;;8.4;7.4;;;;;;;22.3;79.8457;940.978;;;;
2023/09/10 06:12:16;;;;;;;8.2;7;;;;;;;22.37;79.69434;940.9953;;;;
2023/09/10 06:14:42;;;;;;;8.1;7.3;;;;;;;23.19;76.9043;940.9703;;;;
2023/09/10 06:17:08;;;;;;;8.6;7.7;;;;;;;23.58;74.21875;940.9352;;;;
2023/09/10 06:19:33;;;;;;;8.8;7.7;;;;;;;22.97;76.80566;940.9515;;;;
2023/09/10 06:21:58;;;;;;;8.5;7.7;;;;;;;23.21;76.38965;940.9397;;;;
2023/09/10 06:24:23;;;;;;;8.7;7.3;;;;;;;23.12;76.41992;940.9403;;;;
2023/09/10 06:26:48;;;;;;;8.1;7.3;;;;;;;23.54;75.50586;940.9568;;;;
2023/09/10 06:29:14;;;;;;;8.6;7.7;;;;;;;23.32;75.96191;940.9629;;;;
2023/09/10 06:31:39;;;;;;;8.7;7.7;;;;;;;23.61;74.06836;940.9953;;;;
2023/09/10 06:34:06;;;;;;;8.4;7.5;;;;;;;23.85;72.93359;941.0008;;;;
2023/09/10 06:36:31;;;;;;;9.4;7.9;;;;;;;23.7;73.87305;940.9448;;;;
2023/09/10 06:38:57;;;;;;;9;7.4;;;;;;;24.14;72.95801;940.9256;;;;
2023/09/10 06:41:22;;;;;;;9.1;7.9;;;;;;;24.6;73.01953;940.95;;;;
2023/09/10 06:43:47;;;;;;;8.6;7.8;;;;;;;24.54;71.63184;940.9532;;;;
2023/09/10 06:46:19;;;;;;;8.3;7.5;;;;;;;24.65;70.96484;940.935;;;;
2023/09/10 06:48:44;;;;;;;9.6;8;;;;;;;24.76;71.71484;940.8831;;;;
2023/09/10 06:51:09;;;;;;;9;7.8;;;;;;;24.66;70.67285;940.915;;;;
2023/09/10 06:53:34;;;;;;;10;8;;;;;;;24.72;71.55469;940.8932;;;;
2023/09/10 06:56:02;;;;;;;8.6;7.8;;;;;;;24.46;71.3125;940.8848;;;;
2023/09/10 06:58:27;;;;;;;9.2;8.1;;;;;;;24.17;72.03125;940.8773;;;;
2023/09/10 07:00:54;;;;;;;8.7;7.8;;;;;;;24.09;73.66895;940.9063;;;;
2023/09/10 07:03:19;;;;;;;8.7;7.9;;;;;;;24.43;72.92188;940.8572;;;;
2023/09/10 07:05:44;;;;;;;8.2;7.4;;;;;;;24.65;71.9082;940.8342;;;;
2023/09/10 07:08:10;;;;;;;8.6;7.7;;;;;;;24.99;69.45215;940.8683;;;;
2023/09/10 07:10:38;;;;;;;9.9;8;;;;;;;25.56;68.80664;940.8005;;;;
2023/09/10 07:13:03;;;;;;;8.8;7.9;;;;;;;26.37;65.08496;940.7994;;;;
2023/09/10 07:15:28;;;;;;;8.9;8;;;;;;;26.93;62.60742;940.7831;;;;
2023/09/10 07:17:54;;;;;;;8.4;7.6;;;;;;;27.69;60.19629;940.7858;;;;
2023/09/10 07:20:18;;;;;;;8.4;7.6;;;;;;;28.47;57.42285;940.7782;;;;
2023/09/10 07:22:45;;;;;;;7.9;7.2;;;;;;;28.52;56.00195;940.7632;;;;
2023/09/10 07:25:14;;;;;;;8;7.2;;;;;;;28.39;57.45996;940.7235;;;;
2023/09/10 07:27:42;;;;;;;8.1;7.3;;;;;;;29.14;55.62695;940.6902;;;;
2023/09/10 07:30:07;;;;;;;7.8;7;;;;;;;28.36;56.41016;940.6761;;;;
2023/09/10 07:32:32;;;;;;;9.3;7.1;;;;;;;29.36;54.33105;940.7145;;;;
2023/09/10 07:34:57;;;;;;;8.3;7.4;;;;;;;29.5;53.41699;940.6714;;;;
2023/09/10 07:37:23;;;;;;;7.9;6.8;;;;;;;30.17;51.36133;940.6827;;;;
2023/09/10 07:39:48;;;;;;;8;7.3;;;;;;;28.99;53.49902;940.713;;;;
2023/09/10 07:42:17;;;;;;;8.5;7.5;;;;;;;29.67;53.3418;940.6195;;;;
2023/09/10 07:44:42;;;;;;;7.4;6.8;;;;;;;30.2;51.19727;940.6443;;;;
2023/09/10 07:47:10;;;;;;;7.6;6.9;;;;;;;30.73;50.01465;940.5837;;;;
2023/09/10 07:49:35;;;;;;;7.8;7.1;;;;;;;29.7;52.89258;940.593;;;;
2023/09/10 07:52:04;;;;;;;7.7;6.9;;;;;;;29.19;53.47754;940.6451;;;;
2023/09/10 07:54:27;;;;;;;7.9;7.1;;;;;;;28.98;54.77344;940.692;;;;
2023/09/10 07:56:55;;;;;;;8.3;7.5;;;;;;;28.95;54.42383;940.6514;;;;
2023/09/10 07:59:20;;;;;;;7.9;7.1;;;;;;;29.04;54.42285;940.6372;;;;
2023/09/10 08:01:49;;;;;;;9.4;7.2;;;;;;;28.61;57.26172;940.5806;;;;
2023/09/10 08:04:16;;;;;;;7.9;7.1;;;;;;;28.49;55.59375;940.5895;;;;
2023/09/10 08:06:42;;;;;;;12.8;7.8;;;;;;;29;56.46582;940.5765;;;;
2023/09/10 08:09:07;;;;;;;8.4;7.5;;;;;;;29.19;56.52539;940.5444;;;;
2023/09/10 08:11:34;;;;;;;7.8;7;;;;;;;29.37;53.87891;940.5176;;;;
2023/09/10 08:13:59;;;;;;;8.4;7.2;;;;;;;29.79;53.5957;940.5109;;;;
2023/09/10 08:16:27;;;;;;;9.4;7.4;;;;;;;29.08;55.79688;940.5393;;;;
2023/09/10 08:18:52;;;;;;;7.5;6.7;;;;;;;29.47;56.22656;940.4842;;;;
2023/09/10 08:21:20;;;;;;;8.7;7.7;;;;;;;28.77;55.21191;940.4749;;;;
2023/09/10 08:23:44;;;;;;;8.4;7;;;;;;;28.61;56.83398;940.4872;;;;
2023/09/10 08:26:10;;;;;;;8.4;7.5;;;;;;;28.81;56.35742;940.4351;;;;
2023/09/10 08:28:35;;;;;;;8.1;7.3;;;;;;;28.85;56.50684;940.4547;;;;
2023/09/10 08:31:02;;;;;;;7.9;7.2;;;;;;;28.68;56.68652;940.4146;;;;
2023/09/10 08:33:27;;;;;;;8.4;7.5;;;;;;;28.07;59.09277;940.3439;;;;
2023/09/10 08:35:55;;;;;;;8.3;7.5;;;;;;;28.16;59.77148;940.427;;;;
2023/09/10 08:38:20;;;;;;;8.3;7.5;;;;;;;28.33;58.86816;940.3901;;;;
2023/09/10 08:40:48;;;;;;;8.9;8;;;;;;;28.65;57.58789;940.3898;;;;
2023/09/10 08:43:12;;;;;;;9.8;7.8;;;;;;;28.18;59.12012;940.435;;;;
2023/09/10 08:45:37;;;;;;;8.5;7.4;;;;;;;28.32;57.96191;940.4703;;;;
2023/09/10 08:48:03;;;;;;;8.5;7.7;;;;;;;28.15;58.95117;940.4283;;;;
2023/09/10 08:50:28;;;;;;;7.6;6.9;;;;;;;28.21;59.64746;940.4416;;;;
2023/09/10 08:52:53;;;;;;;8.9;7.8;;;;;;;28.93;57.43262;940.4138;;;;
2023/09/10 08:55:21;;;;;;;8.8;7.9;;;;;;;29.31;57.96973;940.3452;;;;
2023/09/10 08:57:46;;;;;;;8.3;7.5;;;;;;;29.71;56.06641;940.3428;;;;
2023/09/10 09:00:14;;;;;;;8;7.2;;;;;;;30.18;55.57422;940.3292;;;;
2023/09/10 09:02:39;;;;;;;8.1;7.2;;;;;;;29.91;54.70703;940.3117;;;;
2023/09/10 09:05:04;;;;;;;8.6;7.2;;;;;;;29.85;54.0791;940.2604;;;;
2023/09/10 09:07:32;;;;;;;7.8;7.1;;;;;;;30.22;51.24707;940.2673;;;;
2023/09/10 09:09:57;;;;;;;9.2;7.2;;;;;;;30.4;50.15625;940.2148;;;;
2023/09/10 09:12:25;;;;;;;8;7;;;;;;;30.57;49.86523;940.1778;;;;
2023/09/10 09:14:50;;;;;;;7.6;6.7;;;;;;;30.36;51.7168;940.1984;;;;
2023/09/10 09:17:15;;;;;;;7.1;6.4;;;;;;;30.53;52.27344;940.1867;;;;
2023/09/10 09:19:40;;;;;;;7.1;6.4;;;;;;;30.41;50.41992;940.2033;;;;
2023/09/10 09:22:05;;;;;;;7;6.3;;;;;;;29.87;54.49902;940.2453;;;;
2023/09/10 09:24:31;;;;;;;8;7.2;;;;;;;29.76;52.97266;940.2008;;;;
2023/09/10 09:26:58;;;;;;;7.8;7.1;;;;;;;29.35;53.85254;940.0945;;;;
2023/09/10 09:29:23;;;;;;;7.9;7.2;;;;;;;29.39;56.69434;940.1519;;;;
2023/09/10 09:31:50;;;;;;;7.9;7.1;;;;;;;29.25;60.21387;940.1066;;;;
2023/09/10 09:34:17;;;;;;;8.2;7.4;;;;;;;28.92;57.99121;940.1625;;;;
2023/09/10 09:36:42;;;;;;;7.9;7.1;;;;;;;28.83;57.26465;940.0945;;;;
2023/09/10 09:39:08;;;;;;;7.6;6.9;;;;;;;28.36;60.9502;940.0613;;;;
2023/09/10 09:41:36;;;;;;;8.6;7.7;;;;;;;28.2;60.49023;940.0588;;;;
2023/09/10 09:44:01;;;;;;;8.4;6.9;;;;;;;28.6;59.75684;940.0485;;;;
2023/09/10 09:46:26;;;;;;;7.6;6.8;;;;;;;28.48;63.93945;939.9825;;;;
2023/09/10 09:48:51;;;;;;;7.8;7;;;;;;;28.76;63.05078;940.0394;;;;
2023/09/10 09:51:17;;;;;;;7.3;6.6;;;;;;;28.84;59.93262;939.986;;;;
2023/09/10 09:53:43;;;;;;;8.5;7.3;;;;;;;29.07;59.84473;939.9546;;;;
2023/09/10 09:56:08;;;;;;;9;7.3;;;;;;;29.17;57.24805;939.9603;;;;
2023/09/10 09:58:37;;;;;;;8.8;6.9;;;;;;;29.6;57.85156;939.9768;;;;
2023/09/10 10:01:03;;;;;;;7.7;7;;;;;;;29.39;58.57617;939.9182;;;;
2023/09/10 10:03:28;;;;;;;7.8;7.1;;;;;;;29.45;59.11914;939.9324;;;;
2023/09/10 10:05:53;;;;;;;7.8;7;;;;;;;29.46;61.3623;939.912;;;;
2023/09/10 10:08:20;;;;;;;7.6;6.9;;;;;;;29.4;60.58008;939.8733;;;;
2023/09/10 10:10:46;;;;;;;7.8;7;;;;;;;29.39;61.99512;939.8561;;;;
2023/09/10 10:13:10;;;;;;;8.4;7.6;;;;;;;29.41;63.24902;939.8194;;;;
2023/09/10 10:15:37;;;;;;;8.1;7.3;;;;;;;29.33;62.33203;939.8205;;;;
2023/09/10 10:18:02;;;;;;;7.4;6.7;;;;;;;29.63;59.60938;939.8022;;;;
2023/09/10 10:20:27;;;;;;;6.7;6.1;;;;;;;29.81;58.98828;939.8235;;;;
2023/09/10 10:22:52;;;;;;;7.9;7.1;;;;;;;29.98;56.4209;939.8178;;;;
2023/09/10 10:25:17;;;;;;;7.8;7;;;;;;;30.08;58.13965;939.8056;;;;
2023/09/10 10:27:42;;;;;;;9.1;7.1;;;;;;;29.77;57.27734;939.7545;;;;
2023/09/10 10:30:09;;;;;;;9.4;6.7;;;;;;;30.04;58.24219;939.7974;;;;
2023/09/10 10:32:34;;;;;;;7.4;6.4;;;;;;;30.73;57.87793;939.7461;;;;
2023/09/10 10:35:00;;;;;;;7.6;6.6;;;;;;;30.64;58.81055;939.7296;;;;
2023/09/10 10:37:25;;;;;;;7.6;6.8;;;;;;;30.9;54.45703;939.6663;;;;
2023/09/10 10:39:51;;;;;;;7.4;6.7;;;;;;;30.88;55.83984;939.6795;;;;
2023/09/10 10:42:16;;;;;;;8;7.3;;;;;;;30.53;57.89941;939.6492;;;;
2023/09/10 10:44:41;;;;;;;7.8;7;;;;;;;30.33;57.36035;939.634;;;;
2023/09/10 10:47:06;;;;;;;7.1;6.5;;;;;;;30.57;56.88965;939.5594;;;;
2023/09/10 10:49:31;;;;;;;7.4;6.7;;;;;;;30.81;56.39355;939.5772;;;;
2023/09/10 10:51:56;;;;;;;7.6;6.9;;;;;;;30.68;56.7959;939.6018;;;;
2023/09/10 10:54:23;;;;;;;7.3;6.6;;;;;;;30.98;55.33887;939.5789;;;;
2023/09/10 10:56:48;;;;;;;7.7;7;;;;;;;31.15;55.39648;939.5977;;;;
2023/09/10 10:59:14;;;;;;;7.8;7;;;;;;;31.38;55.9375;939.5793;;;;
2023/09/10 11:01:39;;;;;;;8.1;7.3;;;;;;;31.36;56.70117;939.5259;;;;
2023/09/10 11:04:04;;;;;;;8.8;6.8;;;;;;;31.48;55.05273;939.5426;;;;
2023/09/10 11:06:31;;;;;;;8.4;7.5;;;;;;;31.63;52.93945;939.576;;;;
2023/09/10 11:08:56;;;;;;;8.1;7.2;;;;;;;31.66;54.27246;939.5132;;;;
2023/09/10 11:11:22;;;;;;;8.1;7.3;;;;;;;30.85;57.60645;939.4595;;;;
2023/09/10 11:13:47;;;;;;;8.8;7.8;;;;;;;30.81;56.74121;939.4327;;;;
2023/09/10 11:16:14;;;;;;;8.3;7.6;;;;;;;32.34;52.41113;939.4361;;;;
2023/09/10 11:18:41;;;;;;;8.7;7.6;;;;;;;32.93;50.91699;939.4194;;;;
2023/09/10 11:21:05;;;;;;;8.7;7.8;;;;;;;33.19;49.90039;939.3981;;;;
2023/09/10 11:23:30;;;;;;;8.6;7.7;;;;;;;32.91;51.23926;939.4338;;;;
2023/09/10 11:25:55;;;;;;;8.4;7.5;;;;;;;33.58;49.45215;939.3769;;;;
2023/09/10 11:28:20;;;;;;;8.7;7.4;;;;;;;32.57;52.52051;939.3936;;;;
2023/09/10 11:30:49;;;;;;;8.2;7.4;;;;;;;32.48;50.09863;939.3806;;;;
2023/09/10 11:33:15;;;;;;;8.3;7.5;;;;;;;31.71;53.16406;939.3179;;;;
2023/09/10 11:35:41;;;;;;;7.7;6.9;;;;;;;31.86;53.33691;939.3926;;;;
2023/09/10 11:38:06;;;;;;;7.6;6.8;;;;;;;32.06;50.65234;939.4032;;;;
2023/09/10 11:40:31;;;;;;;7.7;7;;;;;;;32.07;50.72559;939.3745;;;;
2023/09/10 11:42:57;;;;;;;7.7;6.9;;;;;;;31.51;53.21289;939.3933;;;;
2023/09/10 11:45:29;;;;;;;7.7;6.9;;;;;;;31.71;52.74414;939.3815;;;;
2023/09/10 11:47:49;;;;;;;8.2;7.4;;;;;;;31.94;52.17188;939.3383;;;;
2023/09/10 11:50:16;;;;;;;8;6.8;;;;;;;32.06;50.56836;939.3818;;;;
2023/09/10 11:52:41;;;;;;;7.4;6.8;;;;;;;31.73;54.25586;939.3586;;;;
2023/09/10 11:55:07;;;;;;;7.1;6.5;;;;;;;31.59;52.40723;939.379;;;;
2023/09/10 11:57:33;;;;;;;7.1;6.5;;;;;;;31.24;53.46777;939.372;;;;
2023/09/10 11:59:58;;;;;;;7.9;6.7;;;;;;;31.15;53.00293;939.3362;;;;
2023/09/10 12:02:24;;;;;;;7.6;6.7;;;;;;;30.88;54.52539;939.3539;;;;
2023/09/10 12:04:49;;;;;;;8.1;6.9;;;;;;;30.65;54.78516;939.2842;;;;
2023/09/10 12:07:15;;;;;;;7.8;7;;;;;;;30.63;54.1377;939.2481;;;;
2023/09/10 12:09:40;;;;;;;9.3;7;;;;;;;30.44;57.02734;939.2584;;;;
2023/09/10 12:12:07;;;;;;;7.9;7.2;;;;;;;29.96;58.55566;939.2744;;;;
2023/09/10 12:14:32;;;;;;;8;7.2;;;;;;;30.12;57.81152;939.2759;;;;
2023/09/10 12:16:57;;;;;;;9.4;7.8;;;;;;;29.63;59.38086;939.2625;;;;
2023/09/10 12:19:24;;;;;;;7.9;7.1;;;;;;;29.55;60.01563;939.3043;;;;
2023/09/10 12:21:49;;;;;;;11.3;7.8;;;;;;;29.21;61.51855;939.3515;;;;
2023/09/10 12:24:15;;;;;;;8.7;7.8;;;;;;;29.65;59.65918;939.248;;;;
2023/09/10 12:26:40;;;;;;;8.6;7.8;;;;;;;29.43;59.17773;939.2011;;;;
2023/09/10 12:29:05;;;;;;;8.6;7.2;;;;;;;29.35;59.35742;939.2006;;;;
2023/09/10 12:31:30;;;;;;;10.3;7.8;;;;;;;29.53;61.15723;939.1959;;;;
2023/09/10 12:33:55;;;;;;;8.9;8;;;;;;;29.35;61.43066;939.1577;;;;
2023/09/10 12:36:22;;;;;;;9.4;7.4;;;;;;;29.49;60.1377;939.1671;;;;
2023/09/10 12:38:47;;;;;;;8.4;7.6;;;;;;;29.6;58.01953;939.135;;;;
2023/09/10 12:41:16;;;;;;;8;7.2;;;;;;;29.7;59.21289;939.1133;;;;
2023/09/10 12:43:41;;;;;;;8.1;7.3;;;;;;;29.75;57.9668;939.0974;;;;
2023/09/10 12:46:09;;;;;;;7.6;6.9;;;;;;;29.61;60.36816;939.134;;;;
2023/09/10 12:48:35;;;;;;;8.3;7.3;;;;;;;29.85;60.39941;939.1013;;;;
2023/09/10 12:51:00;;;;;;;8.4;7.1;;;;;;;29.81;58.34473;939.1558;;;;
2023/09/10 12:53:25;;;;;;;8;7.2;;;;;;;30.1;59.09766;939.04;;;;
2023/09/10 12:55:52;;;;;;;8.3;7.4;;;;;;;30.03;59.45898;939.0293;;;;
2023/09/10 12:58:17;;;;;;;8;7.3;;;;;;;30.07;58.41406;939.0496;;;;
2023/09/10 13:00:46;;;;;;;8.3;7.5;;;;;;;30.15;56.89551;939.0823;;;;
2023/09/10 13:03:12;;;;;;;8.2;7.4;;;;;;;30.36;55.4541;939.0364;;;;
2023/09/10 13:05:37;;;;;;;7.6;6.8;;;;;;;30.5;55.31641;938.9844;;;;
2023/09/10 13:08:04;;;;;;;7.4;6.7;;;;;;;30.78;53.80859;939.0438;;;;
2023/09/10 13:10:28;;;;;;;7.5;6.8;;;;;;;30.52;55.7959;939.0304;;;;
2023/09/10 13:12:55;;;;;;;8.1;7.2;;;;;;;30.56;55.39453;938.9807;;;;
2023/09/10 13:15:20;;;;;;;8;7.2;;;;;;;30.49;55.25488;938.9624;;;;
2023/09/10 13:17:48;;;;;;;8.1;7.3;;;;;;;30.39;58.07324;939.0222;;;;
2023/09/10 13:20:13;;;;;;;8.3;7.5;;;;;;;30.01;58.52539;938.959;;;;
2023/09/10 13:22:50;;;;;;;7.9;6.6;;;;;;;30.02;55.9375;938.9297;;;;
2023/09/10 13:25:14;;;;;;;8.3;6.9;;;;;;;30.33;56.91895;938.9648;;;;
2023/09/10 13:27:39;;;;;;;8.6;7;;;;;;;30.19;56.75977;938.9601;;;;
2023/09/10 13:30:05;;;;;;;7.7;7;;;;;;;30.19;55.31543;938.9338;;;;
2023/09/10 13:32:30;;;;;;;7.5;6.8;;;;;;;30.3;54.69434;938.9422;;;;
2023/09/10 13:34:55;;;;;;;8.7;7.4;;;;;;;30.21;54.71875;938.9601;;;;
2023/09/10 13:37:20;;;;;;;7.3;6.6;;;;;;;30.15;56.91992;938.9512;;;;
2023/09/10 13:39:48;;;;;;;7.7;6.9;;;;;;;30.2;56.36523;938.9105;;;;
2023/09/10 13:42:13;;;;;;;8;6.8;;;;;;;30.04;56.03613;938.9395;;;;
2023/09/10 13:44:38;;;;;;;7.3;6.6;;;;;;;29.9;56.35156;938.9163;;;;
2023/09/10 13:47:04;;;;;;;9;7.2;;;;;;;29.42;58.60352;939.0123;;;;
2023/09/10 13:49:29;;;;;;;7.3;6.6;;;;;;;29.3;59.21973;938.9025;;;;
2023/09/10 13:51:55;;;;;;;7.8;7.1;;;;;;;29.44;58.68848;938.926;;;;
2023/09/10 13:54:21;;;;;;;7.9;6.7;;;;;;;29.2;59.08691;938.9436;;;;
2023/09/10 13:56:46;;;;;;;7.6;6.9;;;;;;;29.28;60.55078;938.9619;;;;
2023/09/10 13:59:11;;;;;;;7.7;6.8;;;;;;;29.2;57.70605;938.9239;;;;
2023/09/10 14:01:40;;;;;;;10;7.6;;;;;;;28.97;61.05762;938.8115;;;;
2023/09/10 14:04:05;;;;;;;8.5;6.1;;;;;;;29.22;58.20898;938.8994;;;;
2023/09/10 14:06:33;;;;;;;8;6.7;;;;;;;29.5;58.56738;938.8427;;;;
2023/09/10 14:08:58;;;;;;;7.2;6.5;;;;;;;29.68;56.30176;938.8592;;;;
2023/09/10 14:11:22;;;;;;;7.4;6.7;;;;;;;29.71;56.96094;938.875;;;;
2023/09/10 14:13:48;;;;;;;9.8;6.8;;;;;;;29.42;59.3418;938.864;;;;
2023/09/10 14:16:15;;;;;;;8.4;6.7;;;;;;;29.53;58.16504;938.913;;;;
2023/09/10 14:18:40;;;;;;;7.4;6.7;;;;;;;29.67;56.80078;938.9255;;;;
2023/09/10 14:21:07;;;;;;;7.6;6.4;;;;;;;29.74;55.3418;938.896;;;;
2023/09/10 14:23:32;;;;;;;6.8;6.2;;;;;;;29.97;54.68945;938.8861;;;;
2023/09/10 14:26:06;;;;;;;7.4;6.6;;;;;;;30.11;55.57813;938.8849;;;;
2023/09/10 14:28:32;;;;;;;6.4;5.8;;;;;;;30.02;55.06641;938.8351;;;;
2023/09/10 14:30:59;;;;;;;6.9;6.2;;;;;;;29.86;55.66699;938.8279;;;;
2023/09/10 14:33:23;;;;;;;7.2;6.5;;;;;;;29.49;57.40918;938.8978;;;;
2023/09/10 14:35:49;;;;;;;6.6;6;;;;;;;29.64;57.21387;938.8753;;;;
2023/09/10 14:38:14;;;;;;;7;6.3;;;;;;;29.79;56.10059;938.8678;;;;
2023/09/10 14:40:39;;;;;;;8.2;7;;;;;;;29.7;56.32715;938.8649;;;;
2023/09/10 14:43:05;;;;;;;6.9;6.3;;;;;;;29.21;58.2793;938.9182;;;;
2023/09/10 14:45:30;;;;;;;10.2;6.7;;;;;;;29.2;57.90918;938.9236;;;;
2023/09/10 14:47:57;;;;;;;7.1;6.5;;;;;;;29.36;57.29785;938.8616;;;;
2023/09/10 14:50:23;;;;;;;6.9;6.1;;;;;;;29.36;57.47656;938.9279;;;;
2023/09/10 14:52:47;;;;;;;7.7;6.1;;;;;;;29.31;57.98145;938.9337;;;;
2023/09/10 14:55:19;;;;;;;8.5;6.7;;;;;;;29.55;57.19043;938.952;;;;
2023/09/10 14:57:48;;;;;;;7.6;6.6;;;;;;;29.7;57.05371;938.9735;;;;
2023/09/10 15:00:13;;;;;;;7.6;6.4;;;;;;;29.7;56.13574;938.9177;;;;
2023/09/10 15:02:39;;;;;;;7.4;6.2;;;;;;;29.67;57.14551;938.9258;;;;
2023/09/10 15:05:04;;;;;;;6.7;6.1;;;;;;;29.22;57.95801;938.985;;;;
2023/09/10 15:07:31;;;;;;;8.2;6.1;;;;;;;28.97;58.90332;939.027;;;;
2023/09/10 15:09:56;;;;;;;7.2;6.5;;;;;;;28.72;59.61914;938.9844;;;;
2023/09/10 15:12:21;;;;;;;6.9;6.2;;;;;;;28.69;58.93652;938.9789;;;;
2023/09/10 15:14:47;;;;;;;8;6.2;;;;;;;28.81;58.95313;938.9575;;;;
2023/09/10 15:17:11;;;;;;;7.3;6.5;;;;;;;28.93;57.06348;938.8983;;;;
2023/09/10 15:19:37;;;;;;;7.3;6.1;;;;;;;28.72;58.21582;938.8969;;;;
2023/09/10 15:22:05;;;;;;;7.4;6.3;;;;;;;28.85;57.16113;938.9521;;;;
2023/09/10 15:24:30;;;;;;;7.2;6.1;;;;;;;28.81;57.31055;938.9247;;;;
2023/09/10 15:26:57;;;;;;;6.7;5.9;;;;;;;28.84;57.98145;938.9829;;;;